Terminal Aerodrome Forecast
Issued by NWS

Home | Current Version | Previous Version | Text Only | Print | Product List | Glossary On
Versions: 1 2 3 4 5 6 7 8 9 10 11 12 13
000
FTUS46 KLOX 182338
TAFPMD
TAF
KPMD 182338Z 1900/1924 22017KT P6SM SCT250
     FM190300 24010KT P6SM BKN150
     FM191800 26015G22KT P6SM BKN050 BKN100
     FM192200 27020G28KT P6SM OVC050=

USA.gov is the U.S. government's official web portal to all federal, state and local government web resources and services.